Terminal Aerodrome Forecast
Issued by NWS Dodge City, KS

Home | Current Version | Previous Version | Text Only | Print | Product List | Glossary On
Versions: 1 2 3 4 5 6 7 8 9 10 11 12 13 14 15 16 17 18 19 20 21 22 23 24 25 26 27 28 29 30 31 32 33 34 35 36 37 38 39 40 41 42 43 44 45 46 47 48 49 50
000
FTUS43 KDDC 242058 AAD
TAFDDC
TAF AMD
KDDC 242058Z 2421/2518 VRB03KT P6SM FEW035 SCT045
     FM242200 VRB05KT P6SM BKN050
     FM250000 VRB05KT P6SM SCT050 SCT100
     FM250900 36020G30KT P6SM BKN200=

USA.gov is the U.S. government's official web portal to all federal, state and local government web resources and services.